Terminal Aerodrome Forecast
Issued by NWS

Home | Current Version | Previous Version | Text Only | Print | Product List | Glossary On
Versions: 1 2 3 4 5 6 7 8 9 10 11 12 13 14 15 16 17 18 19 20 21 22
326
FTUS43 KLSX 251740
TAFCPS
TAF
KCPS 251740Z 2518/2618 28008KT P6SM SCT040
     FM260000 16005KT P6SM SKC
     FM260900 15007KT P6SM SCT100 BKN250
     FM261500 18012KT P6SM BKN040=

USA.gov is the U.S. government's official web portal to all federal, state and local government web resources and services.